Etusivu
METAR-TAF:

METAR-TAF

Lentoasemat :

Sandnessjøen, Norja

Leveyspiiri: 65-58N, Pituuspiiri: 012-28E, korkeus merenpinnasta: 1 m

Tämänhetkinen sää

Tämä raportti tehtiin 5 tuntia ja 21 minuuttia sitten, kello 18.50 UTC
Tuuli 7 kn koillisesta
Lämpötila 11°C
Kosteus 94%
Ilmanpaine 990 hPa
Näkyvyys 10 km tai enemmän
Muutamia pilviä 1400 ft:n korkeudessa
Hajanaisia pilviä 2500 ft:n korkeudessa
Hajonneita pilviä 5000 ft:n korkeudessa
heikkoa sadetta

METAR: ENST 251850Z 04007KT 9999 -RA FEW014 SCT025 BKN050 11/10 Q0990 RMK WIND 300FT 05009KT

Aika: 02:11 (00:11 UTC)


TAF: puuttuu

Säähavainnot ja -ennusteet yli 4000 lentoasemalta (METAR- ja TAF-raportit).

Käytössä olevat sääasemat on merkitty karttaan keltaisilla ja punaisilla pisteillä.

Aseta hiiri pisteen päälle nähdäksesi sääaseman nimen.

Klikkaa sitten nähdäksesi säähavainnot ja -ennusteet.

Kartan vaihtaminen: klikkaa mustalla rastilla varustettuja vihreitä pisteitä, niin voit zoomata sisään; viivalla varustettua vihreää pistettä, niin voit zoomata ulos tai vihreitä nuolia, niin pääset viereisille kartoille.


METAR-TAF: